Hailey, Oklahoma
Current Conditions -  °F | °C
As of 7:15 AM on Tuesday 21 Oct 2014 (Local Time) from KCUH Reporting Station
Haze Haze  
Wind Chill: 54°   Ceiling: NA
Heat Index: 54°   Visibility: 3mi
Dew Point: 54°   Wind: 0mph
Humidity: 100%   Direction: NA
Pressure: 30.08"   Gusts: NA
Location:  36.2329°N, 96.5662°W
Report Text: KCUH 211215Z AUTO 00000KT 3SM BR 12/12 A3008 RMK AO2 SKY OBSCURED
Loading
Personal Weather Stations






























Interactive Weather Map
Tropical Storm Tracking
New forecast layout! Learn more

10-Day Weather Forecast

Advertisements
Track Severe Weather on mobile